Time;durP1;ratioP1;P1;durP2;ratioP2;P2;SDS_P1;SDS_P2;PMS_P1;PMS_P2;Temp;Humidity;BMP_temperature;BMP_pressure;BME280_temperature;BME280_humidity;BME280_pressure;Samples;Min_cycle;Max_cycle;Signal;HPM_P1;HPM_P2
2022/04/05 00:01:45;;;;;;;9.50;5.03;;;;;;;7.52;54.04;100965.25;5092273;28;20496;-82
2022/04/05 00:04:10;;;;;;;7.60;5.07;;;;;;;7.46;54.48;100963.09;5068207;28;20047;-82
2022/04/05 00:06:36;;;;;;;7.68;5.07;;;;;;;7.51;54.45;100960.88;5112490;28;20071;-83
2022/04/05 00:09:03;;;;;;;7.88;5.60;;;;;;;7.49;54.46;100946.78;5119546;28;20034;-81
2022/04/05 00:11:31;;;;;;;9.23;4.97;;;;;;;7.62;54.34;100960.78;5091836;28;20051;-82
2022/04/05 00:13:57;;;;;;;6.93;4.85;;;;;;;7.63;54.34;100946.41;5110387;28;20066;-83
2022/04/05 00:16:22;;;;;;;7.67;4.90;;;;;;;7.54;54.70;100949.91;5113594;28;20020;-81
2022/04/05 00:18:49;;;;;;;7.07;4.73;;;;;;;7.49;54.54;100958.34;5096254;28;20134;-80
2022/04/05 00:21:15;;;;;;;6.10;4.78;;;;;;;7.56;54.39;100953.28;5113177;28;20301;-81
2022/04/05 00:23:40;;;;;;;8.75;5.05;;;;;;;7.59;54.17;100950.38;5077171;28;20027;-82
2022/04/05 00:26:07;;;;;;;8.43;4.80;;;;;;;7.52;54.43;100951.88;5095581;28;20067;-83
2022/04/05 00:28:33;;;;;;;6.72;4.72;;;;;;;7.56;54.56;100942.59;5111536;28;20036;-82
2022/04/05 00:30:58;;;;;;;6.70;4.90;;;;;;;7.48;54.00;100924.53;5094770;28;20093;-83
2022/04/05 00:33:24;;;;;;;8.38;5.32;;;;;;;7.46;54.10;100923.81;5095249;28;20101;-82
2022/04/05 00:35:49;;;;;;;7.63;5.30;;;;;;;7.57;54.04;100934.44;5095681;28;20035;-82
2022/04/05 00:38:16;;;;;;;8.40;5.18;;;;;;;7.58;54.25;100936.09;5092515;28;20137;-81
2022/04/05 00:40:43;;;;;;;25.15;12.63;;;;;;;7.32;55.05;100930.38;5113495;28;20479;-81
2022/04/05 00:43:09;;;;;;;16.40;9.02;;;;;;;7.23;55.43;100925.81;5094890;28;20046;-82
2022/04/05 00:45:34;;;;;;;10.88;6.70;;;;;;;7.10;56.04;100919.84;5093833;28;20039;-83
2022/04/05 00:48:06;;;;;;;8.20;5.72;;;;;;;7.16;56.00;100917.50;5080242;28;20032;-82
2022/04/05 00:50:36;;;;;;;8.88;5.78;;;;;;;7.10;56.44;100926.03;5101371;28;20043;-81
2022/04/05 00:53:04;;;;;;;8.63;5.60;;;;;;;7.17;56.06;100921.00;5078044;28;20050;-82
2022/04/05 00:55:31;;;;;;;7.57;5.22;;;;;;;7.15;56.91;100918.47;5112351;28;20074;-84
2022/04/05 00:57:59;;;;;;;8.35;5.45;;;;;;;7.10;57.40;100914.50;5080304;28;20587;-82
2022/04/05 01:00:24;;;;;;;7.72;5.28;;;;;;;6.98;57.72;100898.53;5094561;28;20044;-82
2022/04/05 01:02:50;;;;;;;8.30;5.50;;;;;;;7.10;57.04;100920.69;5112180;28;20034;-82
2022/04/05 01:05:19;;;;;;;8.98;5.75;;;;;;;7.03;57.29;100914.19;5062046;28;20529;-81
2022/04/05 01:07:49;;;;;;;8.45;5.57;;;;;;;6.91;57.31;100900.03;5094779;28;20040;-82
2022/04/05 01:10:16;;;;;;;9.50;5.10;;;;;;;7.05;57.34;100912.22;5078071;28;20509;-82
2022/04/05 01:12:43;;;;;;;8.57;6.00;;;;;;;7.06;57.15;100913.06;5081938;28;20043;-81
2022/04/05 01:15:11;;;;;;;8.07;5.65;;;;;;;7.11;57.14;100909.00;5095688;28;20031;-82
2022/04/05 01:17:37;;;;;;;8.00;5.57;;;;;;;7.21;56.92;100914.44;5094578;28;20397;-81
2022/04/05 01:20:04;;;;;;;10.25;6.00;;;;;;;7.14;57.40;100905.22;5071069;28;20093;-82
2022/04/05 01:22:29;;;;;;;8.32;5.82;;;;;;;7.13;57.48;100899.03;5071329;28;20047;-81
2022/04/05 01:24:55;;;;;;;8.98;6.32;;;;;;;7.15;57.39;100891.72;5078221;28;20524;-83
2022/04/05 01:27:27;;;;;;;9.73;6.20;;;;;;;7.22;56.92;100901.91;5093494;28;20069;-82
2022/04/05 01:29:52;;;;;;;8.65;6.00;;;;;;;7.18;57.08;100885.25;5073868;28;20106;-84
2022/04/05 01:32:22;;;;;;;9.10;6.63;;;;;;;7.13;57.43;100884.81;5075519;28;20041;-83
2022/04/05 01:34:49;;;;;;;10.15;6.10;;;;;;;7.05;57.66;100885.50;5111847;28;20333;-82
2022/04/05 01:37:16;;;;;;;7.85;5.75;;;;;;;7.15;57.55;100874.84;5110769;28;20024;-82
2022/04/05 01:39:42;;;;;;;10.45;5.90;;;;;;;7.17;57.53;100879.06;5094248;28;20401;-81
2022/04/05 01:42:12;;;;;;;9.07;5.85;;;;;;;7.12;57.57;100881.31;5092787;28;20040;-84
2022/04/05 01:44:37;;;;;;;9.23;6.28;;;;;;;6.97;58.46;100883.44;5077781;28;20035;-83
2022/04/05 01:47:14;;;;;;;11.35;6.95;;;;;;;7.09;57.98;100870.84;5087655;28;20400;-83
2022/04/05 01:49:40;;;;;;;10.23;6.05;;;;;;;7.13;57.63;100872.28;5114552;28;20495;-81
2022/04/05 01:52:06;;;;;;;;;;;;;;;7.23;57.58;100872.31;5080778;28;20039;-84
2022/04/05 01:54:33;;;;;;;;;;;;;;;7.21;57.39;100874.31;5095017;28;19923;-82
2022/04/05 01:57:01;;;;;;;10.88;6.32;;;;;;;7.17;57.39;100878.22;5091098;28;19941;-83
2022/04/05 01:59:29;;;;;;;9.45;6.13;;;;;;;7.19;57.72;100870.94;5087968;28;20039;-81
2022/04/05 02:01:55;;;;;;;9.80;6.38;;;;;;;7.02;57.96;100858.16;5093550;28;20347;-82
2022/04/05 02:04:21;;;;;;;9.48;6.47;;;;;;;6.99;58.72;100859.28;5109868;28;20084;-82
2022/04/05 02:06:48;;;;;;;9.13;6.18;;;;;;;7.00;60.44;100866.34;5094570;28;20043;-82
2022/04/05 02:09:14;;;;;;;11.10;6.55;;;;;;;6.92;61.02;100864.31;5092505;28;20039;-82
2022/04/05 02:11:42;;;;;;;8.32;6.05;;;;;;;7.06;59.67;100870.28;5071170;28;20052;-81
2022/04/05 02:14:08;;;;;;;8.82;6.30;;;;;;;7.08;58.83;100863.00;5093277;28;20031;-83
2022/04/05 02:16:33;;;;;;;10.30;5.90;;;;;;;7.07;58.60;100848.78;5089864;28;20047;-81
2022/04/05 02:18:59;;;;;;;9.63;6.67;;;;;;;6.95;59.05;100864.06;5111954;28;20695;-82
2022/04/05 02:21:26;;;;;;;10.20;6.40;;;;;;;6.89;58.96;100869.09;5109807;28;20039;-84
2022/04/05 02:23:51;;;;;;;9.95;6.57;;;;;;;6.90;59.29;100871.59;5108557;28;20089;-82
2022/04/05 02:26:18;;;;;;;10.13;6.13;;;;;;;6.95;59.24;100864.06;5084628;28;20031;-82
2022/04/05 02:28:44;;;;;;;7.78;6.00;;;;;;;6.91;59.37;100857.28;5093265;28;20035;-82
2022/04/05 02:31:11;;;;;;;9.85;6.30;;;;;;;6.89;59.53;100861.91;5078286;28;20070;-84
2022/04/05 02:33:36;;;;;;;;;;;;;;;6.92;59.81;100864.31;5055535;28;20047;-83
2022/04/05 02:36:03;;;;;;;;;;;;;;;6.87;59.77;100869.19;5120649;28;19935;-83
2022/04/05 02:38:29;;;;;;;8.00;5.40;;;;;;;6.75;59.77;100868.44;5123017;28;20024;-83
2022/04/05 02:40:57;;;;;;;10.43;6.25;;;;;;;6.80;60.19;100865.38;5093706;28;20015;-83
2022/04/05 02:43:23;;;;;;;10.20;6.20;;;;;;;6.69;60.56;100862.75;5093352;28;20043;-81
2022/04/05 02:45:54;;;;;;;10.50;6.68;;;;;;;6.53;61.38;100864.06;5076050;28;20110;-81
2022/04/05 02:48:21;;;;;;;10.77;6.20;;;;;;;6.57;61.09;100853.13;5093573;28;20035;-82
2022/04/05 02:50:52;;;;;;;11.88;6.80;;;;;;;6.70;61.02;100865.31;5093379;28;20099;-81
2022/04/05 02:53:19;;;;;;;12.50;6.25;;;;;;;6.72;60.99;100863.34;5075867;28;20469;-83
2022/04/05 02:55:45;;;;;;;9.73;6.53;;;;;;;6.66;60.92;100850.50;5116236;28;20039;-82
2022/04/05 02:58:11;;;;;;;11.43;6.78;;;;;;;6.58;61.60;100860.16;5104979;28;20080;-83
2022/04/05 03:00:38;;;;;;;11.32;7.22;;;;;;;6.50;61.60;100848.28;5111880;28;20045;-82
2022/04/05 03:03:04;;;;;;;9.50;6.45;;;;;;;6.61;61.30;100854.56;5092566;28;20040;-82
2022/04/05 03:05:29;;;;;;;58.80;25.20;;;;;;;6.63;61.27;100841.94;5062656;28;20024;-83
2022/04/05 03:07:55;;;;;;;36.67;18.00;;;;;;;6.51;61.68;100844.66;5093124;28;20126;-82
2022/04/05 03:10:20;;;;;;;27.00;13.43;;;;;;;6.46;61.93;100846.88;5110230;28;20128;-81
2022/04/05 03:12:46;;;;;;;23.37;12.83;;;;;;;6.47;62.19;100837.88;5091740;28;20039;-82
2022/04/05 03:15:13;;;;;;;23.23;15.33;;;;;;;6.54;62.14;100825.69;5075069;28;20040;-83
2022/04/05 03:17:45;;;;;;;18.48;10.18;;;;;;;6.54;62.55;100831.03;5091859;28;20408;-82
2022/04/05 03:20:12;;;;;;;12.38;7.20;;;;;;;6.52;62.89;100826.81;5092595;28;20066;-83
2022/04/05 03:22:42;;;;;;;13.32;7.75;;;;;;;6.60;62.65;100828.81;5077432;28;20055;-83
2022/04/05 03:25:13;;;;;;;22.27;13.63;;;;;;;6.57;62.49;100824.56;5068964;28;20039;-83
2022/04/05 03:27:40;;;;;;;33.25;18.65;;;;;;;6.55;62.66;100837.22;5104141;28;20147;-81
2022/04/05 03:30:10;;;;;;;34.58;20.65;;;;;;;6.51;62.65;100828.63;5093533;28;20082;-82
2022/04/05 03:32:36;;;;;;;33.88;20.95;;;;;;;6.41;62.92;100838.38;5091866;28;20059;-83
2022/04/05 03:35:02;;;;;;;32.25;19.35;;;;;;;6.33;63.39;100824.84;5092668;28;20191;-81
2022/04/05 03:37:28;;;;;;;27.77;17.40;;;;;;;6.30;63.46;100833.13;5093454;28;20035;-82
2022/04/05 03:40:05;;;;;;;27.70;16.47;;;;;;;6.31;63.85;100835.63;5068245;28;20122;-82
2022/04/05 03:42:32;;;;;;;23.15;14.50;;;;;;;6.34;63.71;100832.75;5073825;28;20135;-82
2022/04/05 03:44:57;;;;;;;23.35;14.65;;;;;;;6.23;64.08;100818.59;5073120;28;20031;-82
2022/04/05 03:47:26;;;;;;;23.50;15.25;;;;;;;6.28;64.04;100813.72;5093429;28;20106;-82
2022/04/05 03:49:52;;;;;;;22.13;12.70;;;;;;;6.34;64.21;100819.38;5113599;28;20032;-83
2022/04/05 03:52:19;;;;;;;;;;;;;;;6.38;64.27;100838.66;5091453;28;20416;-82
2022/04/05 03:54:46;;;;;;;18.73;10.43;;;;;;;6.23;64.41;100819.44;5092386;28;20017;-84
2022/04/05 03:57:12;;;;;;;17.40;11.40;;;;;;;6.28;64.62;100829.72;5106862;28;20377;-82
2022/04/05 03:59:38;;;;;;;22.50;12.50;;;;;;;6.31;64.92;100824.97;5084025;28;20131;-83
2022/04/05 04:02:04;;;;;;;18.17;12.57;;;;;;;6.37;64.90;100831.63;5087586;28;20039;-83
2022/04/05 04:04:31;;;;;;;22.20;12.50;;;;;;;6.37;65.21;100836.97;5076198;28;20185;-85
2022/04/05 04:06:56;;;;;;;25.85;15.15;;;;;;;6.50;64.75;100842.09;5071679;28;20100;-82
2022/04/05 04:09:23;;;;;;;29.43;15.57;;;;;;;6.48;64.69;100823.53;5074529;28;20039;-82
2022/04/05 04:11:51;;;;;;;26.33;13.18;;;;;;;6.58;65.36;100833.44;5084551;28;20337;-82
2022/04/05 04:14:16;;;;;;;23.63;12.48;;;;;;;6.47;65.68;100826.34;5091896;28;20039;-83
2022/04/05 04:16:42;;;;;;;22.92;12.07;;;;;;;6.53;65.44;100821.34;5108421;28;20505;-83
2022/04/05 04:19:11;;;;;;;21.38;11.02;;;;;;;6.67;65.77;100838.00;5074906;28;20395;-84
2022/04/05 04:21:37;;;;;;;19.45;10.55;;;;;;;6.66;65.76;100836.31;5058828;28;20503;-83
2022/04/05 04:24:05;;;;;;;22.65;11.23;;;;;;;6.68;65.72;100821.84;5074704;28;20046;-82
2022/04/05 04:26:32;;;;;;;22.13;12.43;;;;;;;6.82;65.75;100826.00;5110433;28;20061;-84
2022/04/05 04:29:04;;;;;;;26.05;12.27;;;;;;;6.93;65.26;100828.59;5109905;28;20023;-84
2022/04/05 04:31:30;;;;;;;25.90;10.95;;;;;;;6.85;65.45;100815.03;5090976;28;20035;-83
2022/04/05 04:33:56;;;;;;;22.20;11.50;;;;;;;6.94;65.30;100819.56;5074433;28;20446;-84
2022/04/05 04:36:21;;;;;;;24.92;13.23;;;;;;;7.01;65.06;100816.38;5090023;28;20038;-83
2022/04/05 04:38:48;;;;;;;23.40;11.70;;;;;;;7.14;64.61;100819.66;5109837;28;20541;-85
2022/04/05 04:41:15;;;;;;;22.40;12.52;;;;;;;7.21;64.35;100826.19;5092098;28;20336;-83
2022/04/05 04:43:41;;;;;;;26.70;13.32;;;;;;;7.30;64.16;100836.03;5090059;28;20052;-83
2022/04/05 04:46:07;;;;;;;24.05;13.57;;;;;;;7.43;63.96;100834.97;5092238;28;20031;-82
2022/04/05 04:48:33;;;;;;;27.23;13.63;;;;;;;7.61;63.35;100839.53;5108249;28;20040;-83
2022/04/05 04:50:58;;;;;;;24.25;13.20;;;;;;;7.78;62.96;100840.69;5095455;28;20464;-83
2022/04/05 04:53:25;;;;;;;26.97;13.53;;;;;;;7.89;62.57;100838.84;5108001;28;20031;-83
2022/04/05 04:55:51;;;;;;;25.38;13.50;;;;;;;7.96;62.08;100834.63;5064131;28;20670;-84
2022/04/05 04:58:16;;;;;;;33.20;14.68;;;;;;;8.17;61.58;100839.84;5068212;28;20132;-83
2022/04/05 05:00:42;;;;;;;27.83;13.83;;;;;;;8.17;61.53;100840.72;5107197;28;20040;-88
2022/04/05 05:03:07;;;;;;;31.00;14.35;;;;;;;8.19;61.66;100846.78;5102926;28;20086;-85
2022/04/05 05:05:33;;;;;;;25.30;12.67;;;;;;;8.35;61.19;100837.31;5110423;28;20054;-86
2022/04/05 05:07:59;;;;;;;25.13;11.60;;;;;;;8.43;61.24;100841.03;5110298;28;20126;-86
2022/04/05 05:10:26;;;;;;;18.45;10.40;;;;;;;8.56;61.12;100832.66;5089072;28;20102;-86
2022/04/05 05:12:51;;;;;;;17.52;10.75;;;;;;;8.82;60.35;100840.94;5076804;28;20038;-85
2022/04/05 05:15:18;;;;;;;20.20;10.57;;;;;;;8.99;60.04;100836.69;5113802;28;20027;-85
2022/04/05 05:17:46;;;;;;;23.15;11.02;;;;;;;9.18;59.38;100838.44;5079008;28;20083;-85
2022/04/05 05:20:14;;;;;;;22.77;10.98;;;;;;;9.38;58.98;100828.44;5107185;28;20035;-86
2022/04/05 05:22:40;;;;;;;27.05;15.30;;;;;;;9.40;58.92;100833.66;5126921;28;20032;-84
2022/04/05 05:25:07;;;;;;;26.38;12.68;;;;;;;9.52;58.58;100835.16;5093991;28;20087;-84
2022/04/05 05:27:33;;;;;;;19.98;10.75;;;;;;;9.68;58.46;100839.88;5109843;28;20156;-84
2022/04/05 05:30:00;;;;;;;26.77;12.38;;;;;;;9.77;58.06;100838.13;5113134;28;20054;-85
2022/04/05 05:32:25;;;;;;;16.40;10.07;;;;;;;9.66;58.52;100823.91;5106607;28;20531;-86
2022/04/05 05:34:51;;;;;;;17.45;11.10;;;;;;;9.69;58.33;100820.94;5102924;28;20096;-85
2022/04/05 05:37:16;;;;;;;15.80;10.27;;;;;;;9.82;57.95;100819.72;5083764;28;20063;-83
2022/04/05 05:39:45;;;;;;;21.20;11.15;;;;;;;10.01;57.52;100837.53;5097960;28;20036;-87
2022/04/05 05:42:11;;;;;;;22.73;10.75;;;;;;;10.14;57.02;100827.25;5116022;28;20058;-89
2022/04/05 05:44:36;;;;;;;17.83;10.05;;;;;;;10.34;56.66;100834.16;5120360;28;20031;-83
2022/04/05 05:47:05;;;;;;;21.02;10.30;;;;;;;10.44;56.39;100830.53;5123556;28;20069;-85
2022/04/05 05:49:31;;;;;;;18.67;10.60;;;;;;;10.50;56.24;100832.63;5110046;28;20039;-84
2022/04/05 05:51:57;;;;;;;14.50;8.88;;;;;;;11.22;54.31;100843.16;5113789;28;20100;-85
2022/04/05 05:54:22;;;;;;;33.50;10.23;;;;;;;11.89;52.43;100836.00;5113637;28;20117;-85
2022/04/05 05:56:50;;;;;;;20.38;10.98;;;;;;;12.37;51.08;100834.38;5113599;28;20463;-85
2022/04/05 05:59:16;;;;;;;12.27;9.20;;;;;;;12.49;50.75;100847.53;5106842;28;20699;-85
2022/04/05 06:01:42;;;;;;;16.27;9.80;;;;;;;12.73;49.84;100839.41;5113073;28;20522;-84
2022/04/05 06:04:13;;;;;;;16.45;9.48;;;;;;;13.19;48.68;100834.25;5096352;28;20035;-84
2022/04/05 06:06:42;;;;;;;18.77;10.90;;;;;;;13.68;47.46;100828.69;5110437;28;20127;-88
2022/04/05 06:09:10;;;;;;;17.23;9.35;;;;;;;13.41;47.54;100821.03;5112286;28;20054;-84
2022/04/05 06:11:37;;;;;;;13.13;9.43;;;;;;;13.85;46.48;100824.00;5113018;28;20055;-85
2022/04/05 06:14:03;;;;;;;17.27;8.85;;;;;;;14.68;45.31;100816.97;5113922;28;20023;-85
2022/04/05 06:16:28;;;;;;;16.50;9.23;;;;;;;15.48;42.98;100825.41;5112801;28;20376;-86
2022/04/05 06:18:54;;;;;;;14.98;7.28;;;;;;;16.85;39.91;100822.63;5113562;28;20419;-86
2022/04/05 06:21:20;;;;;;;13.77;7.85;;;;;;;16.45;40.40;100825.00;5112673;28;20054;-85
2022/04/05 06:23:46;;;;;;;11.23;7.50;;;;;;;16.34;40.30;100822.78;5109864;28;20131;-87
2022/04/05 06:26:11;;;;;;;11.32;8.23;;;;;;;17.39;37.90;100812.91;5083868;28;20110;-86
2022/04/05 06:28:37;;;;;;;21.90;8.18;;;;;;;17.86;36.03;100789.47;5092856;28;20034;-87
2022/04/05 06:31:03;;;;;;;13.43;8.15;;;;;;;18.40;35.09;100809.41;5121509;27;20531;-86
2022/04/05 06:33:28;;;;;;;;;;;;;;;19.69;32.87;100807.91;5080143;28;20062;-87
2022/04/05 06:35:54;;;;;;;;;;;;;;;20.18;31.33;100811.81;5115679;28;19923;-86
2022/04/05 06:38:23;;;;;;;;;;;;;;;21.29;29.54;100802.84;5094726;28;20367;-85
2022/04/05 06:40:48;;;;;;;12.43;7.53;;;;;;;22.21;28.70;100795.53;5119380;28;19915;-85
2022/04/05 06:43:15;;;;;;;13.18;8.60;;;;;;;22.22;27.98;100786.25;5096216;28;20108;-85
2022/04/05 06:45:42;;;;;;;12.60;8.00;;;;;;;22.36;27.88;100785.00;5113859;28;20483;-88
2022/04/05 06:48:09;;;;;;;11.90;7.75;;;;;;;22.92;27.10;100794.53;5112259;28;20530;-86
2022/04/05 06:50:38;;;;;;;17.20;8.68;;;;;;;22.90;26.85;100780.22;5087355;28;20394;-86
2022/04/05 06:53:05;;;;;;;11.80;7.78;;;;;;;22.80;27.05;100784.63;5111665;28;20119;-83
2022/04/05 06:55:31;;;;;;;14.13;8.75;;;;;;;23.15;26.84;100793.69;5112915;28;20067;-84
2022/04/05 06:57:56;;;;;;;12.95;8.18;;;;;;;22.57;27.17;100779.97;5113217;28;20082;-85
2022/04/05 07:00:23;;;;;;;21.33;9.75;;;;;;;22.00;27.84;100797.72;5114598;28;20126;-92
2022/04/05 07:02:52;;;;;;;16.25;11.68;;;;;;;21.75;28.33;100797.03;5112032;28;20103;-88
2022/04/05 07:05:19;;;;;;;23.05;11.07;;;;;;;21.93;28.92;100792.34;5113120;28;20100;-89
2022/04/05 07:07:45;;;;;;;19.70;9.88;;;;;;;20.79;29.35;100781.09;5109077;28;20038;-84
2022/04/05 07:10:15;;;;;;;14.05;11.45;;;;;;;21.08;30.04;100792.34;5094719;28;20033;-81
2022/04/05 07:12:41;;;;;;;14.63;10.73;;;;;;;21.74;28.81;100782.50;5111137;28;20028;-85
2022/04/05 07:15:07;;;;;;;15.75;10.73;;;;;;;21.75;28.54;100783.34;5107952;28;20034;-87
2022/04/05 07:17:33;;;;;;;18.63;10.80;;;;;;;22.30;28.39;100780.44;5117717;28;20035;-87
2022/04/05 07:19:59;;;;;;;14.32;9.77;;;;;;;23.09;27.06;100789.19;5112935;28;20032;-90
2022/04/05 07:22:25;;;;;;;14.55;10.27;;;;;;;23.27;26.08;100779.97;5106819;28;20569;-87
2022/04/05 07:24:51;;;;;;;16.30;9.65;;;;;;;22.64;27.09;100776.06;5113419;28;20038;-94
2022/04/05 07:27:16;;;;;;;12.25;9.60;;;;;;;22.11;28.44;100772.28;5079954;28;20074;-88
2022/04/05 07:29:42;;;;;;;14.73;9.75;;;;;;;21.82;29.36;100778.59;5112486;28;20120;-92
2022/04/05 07:32:07;;;;;;;15.18;9.20;;;;;;;21.27;30.33;100783.09;5103152;28;20051;-84
2022/04/05 07:34:33;;;;;;;19.60;9.93;;;;;;;20.77;31.64;100791.41;5064076;28;20452;-83
2022/04/05 07:37:01;;;;;;;11.73;9.60;;;;;;;19.42;32.92;100799.00;5099256;28;20206;-84
2022/04/05 07:39:26;;;;;;;14.98;10.32;;;;;;;19.63;32.53;100770.59;5101500;28;20036;-84
2022/04/05 07:41:53;;;;;;;;;;;;;;;19.94;32.35;100795.19;5107197;28;20072;-85
2022/04/05 07:44:18;;;;;;;15.40;9.32;;;;;;;20.60;31.23;100798.50;5107125;28;19922;-85
2022/04/05 07:46:45;;;;;;;;;;;;;;;20.58;31.54;100795.16;5100085;28;20028;-86
2022/04/05 07:49:11;;;;;;;12.90;8.93;;;;;;;20.51;31.48;100788.88;5109322;28;19916;-84
2022/04/05 07:51:36;;;;;;;14.82;7.95;;;;;;;20.01;32.35;100779.59;5103317;28;20080;-85
2022/04/05 07:54:02;;;;;;;12.50;8.45;;;;;;;20.63;31.19;100781.69;5085173;28;20031;-87
2022/04/05 07:56:27;;;;;;;15.23;9.35;;;;;;;21.97;29.34;100772.72;5102298;28;20035;-86
2022/04/05 07:58:53;;;;;;;14.75;8.65;;;;;;;21.81;29.40;100780.53;5082789;28;20031;-88
2022/04/05 08:01:18;;;;;;;13.27;7.90;;;;;;;22.31;28.95;100776.63;5104697;28;20020;-86
2022/04/05 08:03:44;;;;;;;10.25;8.05;;;;;;;22.97;27.72;100771.88;5107820;28;20560;-86
2022/04/05 08:06:09;;;;;;;10.75;7.90;;;;;;;23.63;26.76;100771.63;5123778;27;20436;-85
2022/04/05 08:08:35;;;;;;;10.10;7.55;;;;;;;23.99;25.88;100770.38;5071713;28;20031;-86
2022/04/05 08:11:00;;;;;;;9.02;7.20;;;;;;;23.20;26.79;100757.31;5097838;28;20116;-86
2022/04/05 08:13:26;;;;;;;11.27;7.70;;;;;;;23.99;25.89;100759.41;5114517;28;20038;-86
2022/04/05 08:15:52;;;;;;;12.02;7.38;;;;;;;22.75;27.04;100755.22;5078409;28;20093;-86
2022/04/05 08:18:19;;;;;;;9.82;6.90;;;;;;;22.45;28.27;100761.66;5109510;28;20035;-86
2022/04/05 08:20:44;;;;;;;9.68;7.03;;;;;;;21.83;28.66;100764.72;5096150;28;20521;-84
2022/04/05 08:23:10;;;;;;;10.68;6.80;;;;;;;22.33;28.34;100758.06;5112717;28;20027;-84
2022/04/05 08:25:35;;;;;;;10.60;7.57;;;;;;;21.92;29.01;100754.28;5088003;28;20044;-86
2022/04/05 08:28:03;;;;;;;10.00;6.75;;;;;;;21.97;28.65;100748.91;5088239;28;20118;-85
2022/04/05 08:30:30;;;;;;;10.30;6.90;;;;;;;23.08;27.74;100742.78;5109123;28;20126;-84
2022/04/05 08:32:57;;;;;;;8.00;6.50;;;;;;;23.18;26.91;100740.28;5107542;28;20032;-84
2022/04/05 08:35:23;;;;;;;9.00;6.10;;;;;;;22.80;27.38;100735.31;5110447;28;20028;-85
2022/04/05 08:37:51;;;;;;;9.55;7.20;;;;;;;21.88;28.89;100733.91;5076814;28;20131;-82
2022/04/05 08:40:18;;;;;;;8.00;6.43;;;;;;;22.89;27.30;100739.34;5096415;28;20019;-84
2022/04/05 08:42:49;;;;;;;8.20;6.50;;;;;;;22.30;28.33;100729.25;5112935;28;20139;-85
2022/04/05 08:45:15;;;;;;;8.38;6.55;;;;;;;22.47;28.34;100731.28;5117316;28;20039;-84
2022/04/05 08:47:49;;;;;;;8.52;6.03;;;;;;;21.80;28.86;100723.31;5130033;28;20053;-85
2022/04/05 08:50:16;;;;;;;9.77;6.15;;;;;;;20.66;31.13;100730.16;5104231;28;20047;-82
2022/04/05 08:52:54;;;;;;;13.05;6.80;;;;;;;21.48;30.03;100724.38;5116865;27;20086;-83
2022/04/05 08:55:20;;;;;;;9.75;6.70;;;;;;;21.75;29.37;100717.69;5117102;28;20019;-85
2022/04/05 08:57:45;;;;;;;9.90;6.47;;;;;;;22.28;28.70;100705.91;5113031;28;20036;-83
2022/04/05 09:00:15;;;;;;;13.85;7.57;;;;;;;22.69;28.12;100709.59;5096480;28;20092;-83
2022/04/05 09:03:02;;;;;;;12.48;7.43;;;;;;;22.03;29.25;100701.47;5094701;28;20484;-84
2022/04/05 09:05:45;;;;;;;8.50;6.90;;;;;;;21.70;29.35;100700.09;5093182;28;20038;-84
2022/04/05 09:08:20;;;;;;;8.82;7.00;;;;;;;21.64;29.50;100706.47;5118617;28;20016;-84
2022/04/05 09:10:52;;;;;;;10.70;7.68;;;;;;;21.42;30.31;100695.22;5125112;28;20031;-83
2022/04/05 09:13:23;;;;;;;10.77;7.78;;;;;;;20.67;31.54;100690.00;5096058;28;20047;-84
2022/04/05 09:15:51;;;;;;;12.13;6.97;;;;;;;21.31;31.46;100695.16;5110462;28;20501;-84
2022/04/05 09:18:46;;;;;;;7.40;6.55;;;;;;;22.93;28.05;100692.03;5089670;28;20034;-85
2022/04/05 09:21:13;;;;;;;9.98;6.68;;;;;;;23.36;27.23;100684.41;5095642;27;20062;-85
2022/04/05 09:23:43;;;;;;;10.55;6.82;;;;;;;23.24;27.26;100678.13;5092750;27;20046;-85
2022/04/05 09:26:11;;;;;;;11.77;8.80;;;;;;;22.97;27.94;100664.97;5109103;27;20054;-84
2022/04/05 09:28:39;;;;;;;9.88;6.53;;;;;;;23.63;26.72;100681.88;5110181;28;20074;-85
2022/04/05 09:31:06;;;;;;;12.65;6.63;;;;;;;23.64;26.79;100677.22;5111008;28;20047;-84
2022/04/05 09:33:34;;;;;;;10.15;6.47;;;;;;;23.66;26.78;100675.06;5111240;28;20044;-84
2022/04/05 09:36:27;;;;;;;8.48;6.50;;;;;;;24.89;25.44;100671.47;5115560;28;20069;-86
2022/04/05 09:39:18;;;;;;;8.15;6.03;;;;;;;23.67;26.88;100668.50;5108376;27;20039;-85
2022/04/05 09:42:00;;;;;;;7.88;6.40;;;;;;;25.56;24.31;100662.06;5118532;27;20062;-84
2022/04/05 09:44:30;;;;;;;7.80;6.38;;;;;;;26.14;23.70;100657.63;5088673;28;20050;-85
2022/04/05 09:47:11;;;;;;;8.65;6.38;;;;;;;26.36;23.50;100648.41;5106604;28;20040;-85
2022/04/05 09:49:42;;;;;;;7.40;5.88;;;;;;;25.69;24.08;100656.16;5110130;28;20027;-85
2022/04/05 09:52:37;;;;;;;9.73;6.00;;;;;;;25.38;23.93;100650.34;5120027;28;20530;-85
2022/04/05 09:55:13;;;;;;;10.25;6.13;;;;;;;25.45;24.25;100639.97;5119366;28;20027;-88
2022/04/05 09:57:38;;;;;;;8.63;6.03;;;;;;;26.33;23.52;100645.06;5081707;28;20051;-83
2022/04/05 10:00:13;;;;;;;8.18;5.95;;;;;;;26.97;22.47;100642.38;5099711;28;20028;-83
2022/04/05 10:03:02;;;;;;;7.93;5.65;;;;;;;25.94;23.82;100640.94;5096901;28;20023;-85
2022/04/05 10:05:32;;;;;;;6.05;5.03;;;;;;;26.46;22.92;100640.22;5128877;27;20065;-85
2022/04/05 10:08:00;;;;;;;7.93;5.30;;;;;;;26.68;23.25;100629.84;5117158;28;20539;-87
2022/04/05 10:10:26;;;;;;;9.02;5.40;;;;;;;27.29;22.65;100628.44;5105894;28;20031;-88
2022/04/05 10:12:54;;;;;;;10.55;5.43;;;;;;;27.70;21.74;100628.47;5099178;28;20028;-91
2022/04/05 10:15:24;;;;;;;10.07;5.53;;;;;;;27.32;22.41;100622.34;5086540;28;20122;-90
2022/04/05 10:17:53;;;;;;;9.27;5.75;;;;;;;25.89;23.83;100612.31;5110452;28;20034;-91
2022/04/05 10:20:22;;;;;;;10.15;5.47;;;;;;;27.68;21.85;100625.97;5095506;28;20426;-87
2022/04/05 10:22:58;;;;;;;9.98;5.55;;;;;;;27.76;22.04;100619.06;5111572;27;20027;-87
2022/04/05 10:25:24;;;;;;;9.32;4.88;;;;;;;28.39;21.25;100624.25;5101374;28;20051;-85
2022/04/05 10:27:50;;;;;;;7.20;5.18;;;;;;;27.99;21.39;100615.75;5092356;28;20027;-84
2022/04/05 10:30:25;;;;;;;9.20;5.18;;;;;;;27.58;21.99;100604.72;5088825;28;20105;-87
2022/04/05 10:33:10;;;;;;;;;;;;;;;27.80;21.60;100611.91;5102544;28;20040;-85
2022/04/05 10:35:41;;;;;;;8.68;4.97;;;;;;;28.64;20.85;100592.97;5103297;28;19931;-87
2022/04/05 10:38:20;;;;;;;9.10;5.45;;;;;;;25.89;23.86;100584.75;5097465;28;20024;-82
2022/04/05 10:41:14;;;;;;;6.72;5.20;;;;;;;27.36;22.13;100607.72;5101468;28;20054;-85
2022/04/05 10:43:40;;;;;;;9.40;5.60;;;;;;;27.33;22.08;100596.44;5104064;28;20519;-88
2022/04/05 10:46:06;;;;;;;7.63;5.30;;;;;;;26.60;23.17;100578.00;5086795;28;20490;-86
2022/04/05 10:48:32;;;;;;;9.90;5.35;;;;;;;25.43;24.57;100589.88;5103161;28;20043;-89
2022/04/05 10:51:00;;;;;;;7.10;5.20;;;;;;;25.81;24.85;100592.66;5070899;28;20055;-85
2022/04/05 10:53:41;;;;;;;9.43;5.55;;;;;;;23.76;27.53;100599.28;5107728;28;20028;-85
2022/04/05 10:56:10;;;;;;;10.52;6.07;;;;;;;23.28;28.59;100584.16;5089847;28;20028;-85
2022/04/05 10:58:48;;;;;;;8.80;5.50;;;;;;;22.42;29.58;100583.25;5103865;28;20427;-88
2022/04/05 11:01:23;;;;;;;12.73;6.07;;;;;;;22.49;29.05;100582.03;5097452;28;20020;-87
2022/04/05 11:04:16;;;;;;;9.63;5.93;;;;;;;21.38;31.74;100575.56;5111175;28;20052;-88
2022/04/05 11:07:10;;;;;;;8.25;6.15;;;;;;;21.53;32.00;100572.41;5068834;28;20062;-88
2022/04/05 11:09:46;;;;;;;12.38;5.95;;;;;;;21.99;30.48;100555.19;5075895;28;20063;-87
2022/04/05 11:12:43;;;;;;;8.02;6.57;;;;;;;23.00;29.00;100568.56;5084174;28;20024;-89
2022/04/05 11:15:11;;;;;;;8.38;6.32;;;;;;;22.53;30.17;100563.22;5080167;28;20023;-91
2022/04/05 11:17:36;;;;;;;9.70;6.15;;;;;;;21.78;31.10;100547.56;5104801;28;20036;-89
2022/04/05 11:20:03;;;;;;;9.18;5.43;;;;;;;20.67;33.63;100558.91;5086123;28;20592;-92
2022/04/05 11:23:00;;;;;;;9.80;5.93;;;;;;;20.73;33.46;100557.16;5094200;28;20070;-89
2022/04/05 11:25:27;;;;;;;9.23;5.80;;;;;;;21.14;32.65;100541.84;5105714;28;20566;-89
2022/04/05 11:27:56;;;;;;;11.40;6.32;;;;;;;21.82;32.00;100543.28;5085554;28;20028;-88
2022/04/05 11:30:26;;;;;;;9.50;6.47;;;;;;;19.78;35.23;100542.03;5092887;28;20452;-89